Time;durP1;ratioP1;P1;durP2;ratioP2;P2;SDS_P1;SDS_P2;PMS_P1;PMS_P2;Temp;Humidity;BMP_temperature;BMP_pressure;BME280_temperature;BME280_humidity;BME280_pressure;Samples;Min_cycle;Max_cycle;Signal;HPM_P1;HPM_P2
2021/08/23 00:00:42;;;;;;;;;;;18.80;72.10;;;;;;494514;240;1133;-46
2021/08/23 00:02:43;;;;;;;;;;;18.80;72.10;;;;;;494272;240;1155;-46
2021/08/23 00:04:45;;;;;;;;;;;18.80;72.10;;;;;;494568;240;1090;-46
2021/08/23 00:06:46;;;;;;;;;;;18.80;72.10;;;;;;493977;240;2186;-46
2021/08/23 00:08:47;;;;;;;;;;;18.80;72.10;;;;;;494471;240;1026;-46
2021/08/23 00:10:49;;;;;;;;;;;18.70;72.10;;;;;;494520;240;1391;-46
2021/08/23 00:12:50;;;;;;;;;;;18.70;72.20;;;;;;494535;240;1096;-46
2021/08/23 00:14:51;;;;;;;;;;;18.70;72.10;;;;;;494562;240;1076;-46
2021/08/23 00:16:53;;;;;;;;;;;18.80;72.20;;;;;;494239;240;1381;-46
2021/08/23 00:18:54;;;;;;;;;;;18.70;72.10;;;;;;494541;240;1152;-46
2021/08/23 00:20:58;;;;;;;;;;;18.70;72.10;;;;;;494357;240;1268;-46
2021/08/23 00:22:57;;;;;;;;;;;18.70;72.10;;;;;;493919;241;1312;-46
2021/08/23 00:24:59;;;;;;;;;;;18.80;72.10;;;;;;494007;240;1074;-46
2021/08/23 00:26:59;;;;;;;;;;;18.70;72.10;;;;;;494043;240;2183;-46
2021/08/23 00:29:01;;;;;;;;;;;18.70;72.00;;;;;;494113;240;1150;-46
2021/08/23 00:31:02;;;;;;;;;;;18.70;72.10;;;;;;494381;240;1326;-46
2021/08/23 00:33:03;;;;;;;;;;;18.70;72.10;;;;;;494053;240;1244;-46
2021/08/23 00:35:04;;;;;;;;;;;18.70;72.20;;;;;;494230;240;1041;-46
2021/08/23 00:37:06;;;;;;;;;;;18.70;72.30;;;;;;494022;240;1121;-46
2021/08/23 00:39:07;;;;;;;;;;;18.70;72.30;;;;;;494112;240;950;-46
2021/08/23 00:41:08;;;;;;;;;;;18.70;72.30;;;;;;494283;240;1356;-46
2021/08/23 00:43:10;;;;;;;;;;;18.70;72.30;;;;;;494049;240;1215;-46
2021/08/23 00:45:11;;;;;;;;;;;18.70;72.30;;;;;;494195;240;1050;-46
2021/08/23 00:47:12;;;;;;;;;;;18.70;72.30;;;;;;494140;240;2139;-46
2021/08/23 00:49:14;;;;;;;;;;;18.70;72.30;;;;;;494429;240;1049;-46
2021/08/23 00:51:15;;;;;;;;;;;18.70;72.20;;;;;;494096;240;1447;-46
2021/08/23 00:53:16;;;;;;;;;;;18.70;72.30;;;;;;494562;240;1188;-46
2021/08/23 00:55:18;;;;;;;;;;;18.70;72.30;;;;;;494436;240;1076;-46
2021/08/23 00:57:19;;;;;;;;;;;18.70;72.20;;;;;;494193;240;1372;-46
2021/08/23 00:59:20;;;;;;;;;;;18.70;72.20;;;;;;494096;240;1067;-46
2021/08/23 01:01:22;;;;;;;;;;;18.70;72.10;;;;;;494260;240;1423;-46
2021/08/23 01:03:23;;;;;;;;;;;18.70;72.10;;;;;;494125;240;1055;-46
2021/08/23 01:05:24;;;;;;;;;;;18.70;72.20;;;;;;494290;240;1053;-46
2021/08/23 01:07:26;;;;;;;;;;;18.60;72.30;;;;;;494024;240;2178;-46
2021/08/23 01:09:27;;;;;;;;;;;18.60;72.30;;;;;;494571;240;1014;-46
2021/08/23 01:11:28;;;;;;;;;;;18.70;72.30;;;;;;494050;239;1232;-46
2021/08/23 01:13:30;;;;;;;;;;;18.70;72.20;;;;;;494129;240;1038;-46
2021/08/23 01:15:31;;;;;;;;;;;18.70;72.20;;;;;;494610;240;1097;-46
2021/08/23 01:17:32;;;;;;;;;;;18.70;72.20;;;;;;494417;240;1161;-46
2021/08/23 01:19:34;;;;;;;;;;;18.70;72.20;;;;;;494614;240;1071;-46
2021/08/23 01:21:35;;;;;;;;;;;18.70;72.10;;;;;;494071;239;1370;-46
2021/08/23 01:23:36;;;;;;;;;;;18.70;72.20;;;;;;494204;240;1180;-46
2021/08/23 01:25:38;;;;;;;;;;;18.70;72.20;;;;;;494594;240;1119;-46
2021/08/23 01:27:39;;;;;;;;;;;18.70;72.20;;;;;;494202;240;2135;-46
2021/08/23 01:29:40;;;;;;;;;;;18.70;72.30;;;;;;494116;240;1067;-46
2021/08/23 01:31:42;;;;;;;;;;;18.70;72.20;;;;;;494060;240;1359;-46
2021/08/23 01:33:43;;;;;;;;;;;18.70;72.30;;;;;;494501;240;1206;-46
2021/08/23 01:35:44;;;;;;;;;;;18.70;72.30;;;;;;494113;240;1118;-46
2021/08/23 01:37:46;;;;;;;;;;;18.70;72.30;;;;;;494163;240;1197;-46
2021/08/23 01:39:47;;;;;;;;;;;18.60;72.40;;;;;;494528;240;1063;-46
2021/08/23 01:41:48;;;;;;;;;;;18.60;72.40;;;;;;494017;240;1228;-46
2021/08/23 01:43:50;;;;;;;;;;;18.60;72.30;;;;;;494362;240;942;-46
2021/08/23 01:45:51;;;;;;;;;;;18.60;72.30;;;;;;494096;240;1149;-46
2021/08/23 01:47:53;;;;;;;;;;;18.70;72.30;;;;;;494185;240;2182;-46
2021/08/23 01:49:54;;;;;;;;;;;18.70;72.30;;;;;;494090;240;1791;-46
2021/08/23 01:51:55;;;;;;;;;;;18.70;72.30;;;;;;494058;240;1345;-46
2021/08/23 01:53:56;;;;;;;;;;;18.60;72.30;;;;;;494489;240;1093;-46
2021/08/23 01:55:58;;;;;;;;;;;18.60;72.30;;;;;;494152;240;1106;-46
2021/08/23 01:57:59;;;;;;;;;;;18.60;72.30;;;;;;494122;240;1155;-46
2021/08/23 02:00:00;;;;;;;;;;;18.70;72.30;;;;;;494210;240;976;-46
2021/08/23 02:02:02;;;;;;;;;;;18.70;72.20;;;;;;494130;240;1420;-46
2021/08/23 02:04:03;;;;;;;;;;;18.60;72.30;;;;;;494572;240;1471;-46
2021/08/23 02:06:04;;;;;;;;;;;18.60;72.40;;;;;;494542;240;1029;-46
2021/08/23 02:08:06;;;;;;;;;;;18.60;72.30;;;;;;494158;240;2162;-46
2021/08/23 02:10:07;;;;;;;;;;;18.60;72.30;;;;;;494238;240;1061;-46
2021/08/23 02:12:08;;;;;;;;;;;18.60;72.40;;;;;;493943;240;1321;-46
2021/08/23 02:14:10;;;;;;;;;;;18.60;72.40;;;;;;494427;240;1204;-46
2021/08/23 02:16:11;;;;;;;;;;;18.60;72.30;;;;;;494321;240;1060;-46
2021/08/23 02:18:12;;;;;;;;;;;18.60;72.40;;;;;;494438;240;1238;-46
2021/08/23 02:20:14;;;;;;;;;;;18.60;72.40;;;;;;494509;240;1097;-46
2021/08/23 02:22:15;;;;;;;;;;;18.60;72.30;;;;;;494438;240;1366;-46
2021/08/23 02:24:16;;;;;;;;;;;18.60;72.40;;;;;;494135;240;1069;-46
2021/08/23 02:26:17;;;;;;;;;;;18.60;72.30;;;;;;494219;240;1191;-46
2021/08/23 02:28:19;;;;;;;;;;;18.60;72.40;;;;;;494554;240;2132;-46
2021/08/23 02:30:20;;;;;;;;;;;18.60;72.40;;;;;;494288;240;1244;-46
2021/08/23 02:32:21;;;;;;;;;;;18.60;72.40;;;;;;493983;240;1456;-46
2021/08/23 02:34:23;;;;;;;;;;;18.60;72.30;;;;;;494584;240;1027;-46
2021/08/23 02:36:24;;;;;;;;;;;18.60;72.30;;;;;;494346;240;1640;-46
2021/08/23 02:38:26;;;;;;;;;;;18.60;72.40;;;;;;494217;240;1211;-46
2021/08/23 02:40:27;;;;;;;;;;;18.60;72.50;;;;;;494089;241;1897;-46
2021/08/23 02:42:28;;;;;;;;;;;18.60;72.40;;;;;;494258;240;1178;-46
2021/08/23 02:44:29;;;;;;;;;;;18.60;72.40;;;;;;494047;240;1078;-46
2021/08/23 02:46:31;;;;;;;;;;;18.60;72.50;;;;;;494116;240;1171;-46
2021/08/23 02:48:32;;;;;;;;;;;18.60;72.50;;;;;;494088;240;2146;-46
2021/08/23 02:50:33;;;;;;;;;;;18.60;72.40;;;;;;494366;240;1065;-46
2021/08/23 02:52:35;;;;;;;;;;;18.60;72.40;;;;;;494049;240;1248;-46
2021/08/23 02:54:36;;;;;;;;;;;18.70;72.30;;;;;;494146;240;1072;-46
2021/08/23 02:56:37;;;;;;;;;;;18.90;71.10;;;;;;494069;240;1158;-46
2021/08/23 02:58:39;;;;;;;;;;;19.30;70.10;;;;;;494554;240;1032;-46
2021/08/23 03:00:40;;;;;;;;;;;19.50;69.20;;;;;;494546;240;1074;-46
2021/08/23 03:02:41;;;;;;;;;;;19.70;68.40;;;;;;494123;240;1370;-46
2021/08/23 03:04:42;;;;;;;;;;;19.80;67.70;;;;;;494536;240;1068;-46
2021/08/23 03:06:44;;;;;;;;;;;19.90;67.40;;;;;;494390;240;1068;-46
2021/08/23 03:08:45;;;;;;;;;;;20.00;67.20;;;;;;494248;240;2171;-46
2021/08/23 03:10:47;;;;;;;;;;;20.00;67.00;;;;;;494162;240;1042;-46
2021/08/23 03:12:48;;;;;;;;;;;20.10;66.70;;;;;;494392;240;1223;-46
2021/08/23 03:14:49;;;;;;;;;;;20.20;66.60;;;;;;494131;240;1035;-46
2021/08/23 03:16:50;;;;;;;;;;;20.20;66.40;;;;;;494070;240;1212;-47
2021/08/23 03:18:52;;;;;;;;;;;20.30;66.00;;;;;;494558;240;1122;-46
2021/08/23 03:20:53;;;;;;;;;;;20.30;66.00;;;;;;494528;240;1117;-46
2021/08/23 03:22:54;;;;;;;;;;;20.30;65.90;;;;;;494487;240;1217;-46
2021/08/23 03:24:56;;;;;;;;;;;20.40;65.90;;;;;;494613;240;1085;-46
2021/08/23 03:26:57;;;;;;;;;;;20.40;65.80;;;;;;494260;240;1616;-46
2021/08/23 03:28:58;;;;;;;;;;;20.40;65.80;;;;;;494122;240;2186;-46
2021/08/23 03:31:00;;;;;;;;;;;20.50;65.60;;;;;;494467;240;1075;-46
2021/08/23 03:33:01;;;;;;;;;;;20.50;65.50;;;;;;494143;240;1031;-46
2021/08/23 03:35:02;;;;;;;;;;;20.50;65.40;;;;;;494075;240;1061;-46
2021/08/23 03:37:04;;;;;;;;;;;20.50;65.30;;;;;;494370;240;994;-46
2021/08/23 03:39:05;;;;;;;;;;;20.60;65.40;;;;;;494222;240;1252;-46
2021/08/23 03:41:06;;;;;;;;;;;20.60;65.20;;;;;;494434;240;1036;-46
2021/08/23 03:43:08;;;;;;;;;;;20.70;65.10;;;;;;494553;240;1149;-46
2021/08/23 03:45:09;;;;;;;;;;;20.70;65.10;;;;;;494215;240;993;-46
2021/08/23 03:47:10;;;;;;;;;;;20.70;65.00;;;;;;494502;240;1064;-46
2021/08/23 03:49:12;;;;;;;;;;;20.80;64.80;;;;;;494267;240;2190;-46
2021/08/23 03:51:13;;;;;;;;;;;20.80;64.60;;;;;;494016;240;1071;-46
2021/08/23 03:53:15;;;;;;;;;;;20.80;64.50;;;;;;494427;240;1210;-46
2021/08/23 03:55:16;;;;;;;;;;;20.90;64.50;;;;;;494063;240;1098;-46
2021/08/23 03:57:17;;;;;;;;;;;20.90;64.50;;;;;;494346;240;1235;-46
2021/08/23 03:59:18;;;;;;;;;;;20.90;64.30;;;;;;494204;240;1177;-46
2021/08/23 04:01:20;;;;;;;;;;;20.90;64.40;;;;;;494042;240;1073;-46
2021/08/23 04:03:21;;;;;;;;;;;20.90;64.40;;;;;;494309;240;1080;-46
2021/08/23 04:05:22;;;;;;;;;;;21.00;64.30;;;;;;494086;240;1035;-46
2021/08/23 04:07:24;;;;;;;;;;;21.00;64.20;;;;;;494486;240;1083;-46
2021/08/23 04:09:25;;;;;;;;;;;21.00;64.20;;;;;;494068;240;2182;-47
2021/08/23 04:11:26;;;;;;;;;;;21.00;64.10;;;;;;494246;240;1165;-46
2021/08/23 04:13:28;;;;;;;;;;;21.10;64.00;;;;;;494473;240;1041;-46
2021/08/23 04:15:29;;;;;;;;;;;21.10;64.00;;;;;;494311;240;1183;-46
2021/08/23 04:17:30;;;;;;;;;;;21.10;64.00;;;;;;494021;240;1262;-46
2021/08/23 04:19:32;;;;;;;;;;;21.10;64.00;;;;;;494422;240;1214;-46
2021/08/23 04:21:33;;;;;;;;;;;21.10;64.00;;;;;;494090;240;1218;-46
2021/08/23 04:23:34;;;;;;;;;;;21.10;63.90;;;;;;494043;240;1137;-46
2021/08/23 04:25:36;;;;;;;;;;;21.20;63.90;;;;;;494283;240;1123;-46
2021/08/23 04:27:37;;;;;;;;;;;21.10;63.90;;;;;;493934;240;2182;-46
2021/08/23 04:29:38;;;;;;;;;;;21.20;63.90;;;;;;494490;240;1096;-46
2021/08/23 04:31:40;;;;;;;;;;;21.20;63.70;;;;;;494020;240;1235;-46
2021/08/23 04:33:45;;;;;;;;;;;21.30;63.70;;;;;;494471;240;1107;-46
2021/08/23 04:35:43;;;;;;;;;;;21.30;63.70;;;;;;494201;241;1505;-46
2021/08/23 04:37:44;;;;;;;;;;;21.20;63.70;;;;;;494114;240;1187;-46
2021/08/23 04:39:47;;;;;;;;;;;21.30;63.60;;;;;;494103;240;1205;-46
2021/08/23 04:41:46;;;;;;;;;;;21.20;63.70;;;;;;493856;240;2031;-46
2021/08/23 04:43:48;;;;;;;;;;;21.30;63.60;;;;;;494439;240;1207;-46
2021/08/23 04:45:49;;;;;;;;;;;21.30;63.70;;;;;;493989;240;1164;-46
2021/08/23 04:47:51;;;;;;;;;;;21.30;63.70;;;;;;494015;240;2163;-47
2021/08/23 04:49:52;;;;;;;;;;;21.30;63.60;;;;;;493874;241;1169;-47
2021/08/23 04:51:53;;;;;;;;;;;21.30;63.50;;;;;;493867;240;1074;-46
2021/08/23 04:53:54;;;;;;;;;;;21.30;63.60;;;;;;494154;237;1262;-46
2021/08/23 04:55:56;;;;;;;;;;;21.30;63.70;;;;;;494373;240;1028;-46
2021/08/23 04:57:57;;;;;;;;;;;21.40;63.50;;;;;;493901;240;1157;-46
2021/08/23 04:59:58;;;;;;;;;;;21.40;63.40;;;;;;494252;240;1084;-47
2021/08/23 05:02:00;;;;;;;;;;;21.40;63.60;;;;;;494047;240;1148;-46
2021/08/23 05:04:01;;;;;;;;;;;21.40;63.50;;;;;;493933;240;1221;-46
2021/08/23 05:06:02;;;;;;;;;;;21.50;63.50;;;;;;493946;240;1053;-46
2021/08/23 05:08:04;;;;;;;;;;;21.40;63.30;;;;;;493940;240;2186;-46
2021/08/23 05:10:05;;;;;;;;;;;21.40;63.30;;;;;;493944;240;1186;-46
2021/08/23 05:12:06;;;;;;;;;;;21.40;63.30;;;;;;494109;239;1184;-46
2021/08/23 05:14:08;;;;;;;;;;;21.40;63.40;;;;;;493765;240;1249;-47
2021/08/23 05:16:09;;;;;;;;;;;21.50;63.30;;;;;;493727;240;1439;-46
2021/08/23 05:18:10;;;;;;;;;;;21.40;63.40;;;;;;493864;240;1174;-46
2021/08/23 05:20:12;;;;;;;;;;;21.40;63.50;;;;;;493871;240;1125;-46
2021/08/23 05:22:13;;;;;;;;;;;21.50;63.40;;;;;;493900;240;1123;-47
2021/08/23 05:24:15;;;;;;;;;;;21.50;63.40;;;;;;493916;240;1529;-47
2021/08/23 05:26:16;;;;;;;;;;;21.50;63.30;;;;;;493914;240;1333;-46
2021/08/23 05:28:17;;;;;;;;;;;21.50;63.40;;;;;;493806;240;2183;-46
2021/08/23 05:30:19;;;;;;;;;;;21.50;63.40;;;;;;493958;240;1151;-46
2021/08/23 05:32:20;;;;;;;;;;;21.50;63.50;;;;;;493956;240;1274;-47
2021/08/23 05:34:21;;;;;;;;;;;21.50;63.70;;;;;;494012;240;1040;-46
2021/08/23 05:36:23;;;;;;;;;;;21.50;64.60;;;;;;494097;240;1416;-46
2021/08/23 05:38:24;;;;;;;;;;;21.40;65.00;;;;;;493783;240;1292;-46
2021/08/23 05:40:29;;;;;;;;;;;21.00;66.00;;;;;;493814;240;1158;-46
2021/08/23 05:42:27;;;;;;;;;;;20.70;67.40;;;;;;493428;241;2067;-46
2021/08/23 05:44:28;;;;;;;;;;;20.40;68.30;;;;;;493823;240;1096;-46
2021/08/23 05:46:30;;;;;;;;;;;20.30;68.90;;;;;;493902;240;1340;-46
2021/08/23 05:48:32;;;;;;;;;;;20.10;69.40;;;;;;493866;240;2186;-46
2021/08/23 05:50:32;;;;;;;;;;;20.00;69.70;;;;;;493856;240;2211;-47
2021/08/23 05:52:34;;;;;;;;;;;19.90;70.00;;;;;;493860;240;1197;-46
2021/08/23 05:54:37;;;;;;;;;;;19.80;70.20;;;;;;493825;240;1566;-46
2021/08/23 05:56:40;;;;;;;;;;;19.80;70.50;;;;;;493733;240;1356;-46
2021/08/23 05:58:38;;;;;;;;;;;19.70;70.60;;;;;;493514;241;1711;-46
2021/08/23 06:00:40;;;;;;;;;;;19.70;70.70;;;;;;493710;240;1089;-46
2021/08/23 06:02:41;;;;;;;;;;;19.60;70.80;;;;;;493629;240;1149;-46
2021/08/23 06:04:42;;;;;;;;;;;19.60;70.90;;;;;;493676;240;1063;-46
2021/08/23 06:06:44;;;;;;;;;;;19.60;70.90;;;;;;493637;240;1305;-46
2021/08/23 06:08:45;;;;;;;;;;;19.60;70.90;;;;;;493660;240;2200;-46
2021/08/23 06:10:46;;;;;;;;;;;19.50;71.00;;;;;;493597;240;1178;-46
2021/08/23 06:12:48;;;;;;;;;;;19.50;71.20;;;;;;493647;240;1118;-46
2021/08/23 06:14:49;;;;;;;;;;;19.40;71.20;;;;;;493216;240;1080;-46
2021/08/23 06:16:51;;;;;;;;;;;19.40;71.10;;;;;;493376;240;1432;-46
2021/08/23 06:18:52;;;;;;;;;;;19.40;71.20;;;;;;493753;240;864;-46
2021/08/23 06:20:54;;;;;;;;;;;19.40;71.30;;;;;;494215;240;1236;-46
2021/08/23 06:22:55;;;;;;;;;;;19.40;71.30;;;;;;494156;240;1033;-46
2021/08/23 06:24:56;;;;;;;;;;;19.30;71.30;;;;;;493710;240;1119;-46
2021/08/23 06:26:58;;;;;;;;;;;19.30;71.30;;;;;;493791;240;1137;-46
2021/08/23 06:28:59;;;;;;;;;;;19.30;71.40;;;;;;493632;240;2202;-46
2021/08/23 06:31:01;;;;;;;;;;;19.30;71.40;;;;;;493935;240;1304;-46
2021/08/23 06:33:02;;;;;;;;;;;19.30;71.40;;;;;;494121;240;1093;-46
2021/08/23 06:35:03;;;;;;;;;;;19.30;71.40;;;;;;494156;240;818;-46
2021/08/23 06:37:04;;;;;;;;;;;19.30;71.30;;;;;;493622;240;1283;-46
2021/08/23 06:39:06;;;;;;;;;;;19.30;71.40;;;;;;494172;240;1003;-46
2021/08/23 06:41:07;;;;;;;;;;;19.20;71.40;;;;;;493828;240;1146;-46
2021/08/23 06:43:08;;;;;;;;;;;19.20;71.40;;;;;;494108;240;1146;-46
2021/08/23 06:45:10;;;;;;;;;;;19.20;71.40;;;;;;493632;240;879;-46
2021/08/23 06:47:13;;;;;;;;;;;19.20;71.50;;;;;;493638;240;1204;-46
2021/08/23 06:49:12;;;;;;;;;;;19.20;71.50;;;;;;493582;241;2535;-46
2021/08/23 06:51:18;;;;;;;;;;;19.20;71.50;;;;;;493664;240;1198;-46
2021/08/23 06:53:15;;;;;;;;;;;19.10;71.40;;;;;;493226;241;1870;-46
2021/08/23 06:55:16;;;;;;;;;;;19.20;71.50;;;;;;493924;240;1249;-46
2021/08/23 06:57:18;;;;;;;;;;;19.10;71.50;;;;;;493921;240;1279;-45
2021/08/23 06:59:20;;;;;;;;;;;19.10;71.50;;;;;;493238;240;1249;-46
2021/08/23 07:01:23;;;;;;;;;;;19.10;71.50;;;;;;493109;240;1091;-46
2021/08/23 07:03:22;;;;;;;;;;;19.10;71.60;;;;;;492985;241;1231;-46
2021/08/23 07:05:25;;;;;;;;;;;19.10;71.50;;;;;;493131;240;1105;-46
2021/08/23 07:07:25;;;;;;;;;;;19.20;71.50;;;;;;493121;240;2255;-46
2021/08/23 07:09:26;;;;;;;;;;;19.10;71.50;;;;;;493180;241;2147;-46
2021/08/23 07:11:28;;;;;;;;;;;19.10;71.50;;;;;;493451;240;1196;-46
2021/08/23 07:13:29;;;;;;;;;;;19.10;71.60;;;;;;493456;240;1271;-46
2021/08/23 07:15:30;;;;;;;;;;;19.10;71.50;;;;;;493313;240;1067;-46
2021/08/23 07:17:32;;;;;;;;;;;19.10;71.60;;;;;;493478;240;1244;-46
2021/08/23 07:19:34;;;;;;;;;;;19.00;71.70;;;;;;493697;240;1061;-46
2021/08/23 07:21:36;;;;;;;;;;;19.00;71.70;;;;;;493428;240;1116;-46
2021/08/23 07:23:37;;;;;;;;;;;19.00;71.70;;;;;;493287;240;1337;-46
2021/08/23 07:25:38;;;;;;;;;;;19.00;71.60;;;;;;493265;240;1325;-46
2021/08/23 07:27:40;;;;;;;;;;;19.00;71.60;;;;;;493346;240;1127;-46
2021/08/23 07:29:41;;;;;;;;;;;19.00;71.70;;;;;;493339;240;2139;-46
2021/08/23 07:31:42;;;;;;;;;;;19.00;71.80;;;;;;493171;240;1213;-46
2021/08/23 07:33:44;;;;;;;;;;;19.00;71.70;;;;;;493085;240;1186;-46
2021/08/23 07:35:45;;;;;;;;;;;19.00;71.60;;;;;;493044;240;1299;-46
2021/08/23 07:37:46;;;;;;;;;;;19.00;71.60;;;;;;493251;240;1343;-46
2021/08/23 07:39:48;;;;;;;;;;;19.00;71.60;;;;;;493172;240;1299;-46
2021/08/23 07:41:50;;;;;;;;;;;19.00;71.60;;;;;;493052;240;1190;-46
2021/08/23 07:43:50;;;;;;;;;;;19.00;71.60;;;;;;493043;241;2032;-46
2021/08/23 07:45:52;;;;;;;;;;;19.00;71.70;;;;;;493056;240;1354;-46
2021/08/23 07:47:53;;;;;;;;;;;19.00;71.70;;;;;;493460;240;1192;-46
2021/08/23 07:49:54;;;;;;;;;;;19.00;71.70;;;;;;493307;240;2140;-46
2021/08/23 07:51:56;;;;;;;;;;;19.00;71.70;;;;;;493214;240;1373;-46
2021/08/23 07:53:57;;;;;;;;;;;19.00;71.70;;;;;;493097;240;1253;-46
2021/08/23 07:55:59;;;;;;;;;;;19.00;71.70;;;;;;492866;240;1206;-46
2021/08/23 07:58:00;;;;;;;;;;;19.00;71.70;;;;;;492763;240;1253;-46
2021/08/23 08:00:02;;;;;;;;;;;19.00;71.60;;;;;;492908;240;1063;-46
2021/08/23 08:02:02;;;;;;;;;;;18.90;71.70;;;;;;492869;241;2341;-46
2021/08/23 08:04:04;;;;;;;;;;;18.90;71.70;;;;;;492946;240;1170;-46
2021/08/23 08:06:05;;;;;;;;;;;18.90;71.70;;;;;;492883;241;1364;-46
2021/08/23 08:08:07;;;;;;;;;;;18.90;71.80;;;;;;492832;240;1302;-46
2021/08/23 08:10:08;;;;;;;;;;;18.90;71.90;;;;;;492877;240;2171;-46
2021/08/23 08:12:10;;;;;;;;;;;18.90;71.90;;;;;;492856;240;1295;-46
2021/08/23 08:14:11;;;;;;;;;;;18.90;71.80;;;;;;492953;240;1310;-45
2021/08/23 08:16:12;;;;;;;;;;;18.90;71.80;;;;;;492918;240;1325;-46
2021/08/23 08:18:14;;;;;;;;;;;18.90;71.70;;;;;;492995;240;1171;-46
2021/08/23 08:20:15;;;;;;;;;;;18.90;71.70;;;;;;492944;240;1166;-46
2021/08/23 08:22:16;;;;;;;;;;;18.90;71.80;;;;;;492910;240;1284;-46
2021/08/23 08:24:18;;;;;;;;;;;18.90;71.80;;;;;;492948;240;1084;-46
2021/08/23 08:26:19;;;;;;;;;;;18.90;71.80;;;;;;493017;240;1087;-46
2021/08/23 08:28:20;;;;;;;;;;;18.90;71.80;;;;;;492912;240;1264;-46
2021/08/23 08:30:22;;;;;;;;;;;18.90;71.80;;;;;;493094;240;2144;-46
2021/08/23 08:32:23;;;;;;;;;;;18.90;71.70;;;;;;492875;240;1280;-46
2021/08/23 08:34:24;;;;;;;;;;;18.90;71.80;;;;;;492929;240;1177;-46
2021/08/23 08:36:26;;;;;;;;;;;18.90;71.90;;;;;;492862;240;1082;-46
2021/08/23 08:38:27;;;;;;;;;;;18.90;71.80;;;;;;493104;240;1247;-46
2021/08/23 08:40:28;;;;;;;;;;;18.90;71.80;;;;;;493034;240;1344;-46
2021/08/23 08:42:30;;;;;;;;;;;18.90;71.80;;;;;;493606;240;1157;-46
2021/08/23 08:44:31;;;;;;;;;;;18.90;71.80;;;;;;493335;240;907;-46
2021/08/23 08:46:32;;;;;;;;;;;18.90;71.90;;;;;;493608;240;1098;-46
2021/08/23 08:48:34;;;;;;;;;;;18.90;72.00;;;;;;493643;240;1118;-46
2021/08/23 08:50:35;;;;;;;;;;;18.90;71.90;;;;;;493171;240;2202;-46
2021/08/23 08:52:36;;;;;;;;;;;18.90;71.90;;;;;;493723;241;1044;-46
2021/08/23 08:54:38;;;;;;;;;;;18.90;71.90;;;;;;493707;240;849;-46
2021/08/23 08:56:39;;;;;;;;;;;18.90;72.00;;;;;;493273;240;1068;-46
2021/08/23 08:58:40;;;;;;;;;;;18.90;71.90;;;;;;493328;240;1089;-46
2021/08/23 09:00:41;;;;;;;;;;;18.80;71.80;;;;;;493714;240;950;-46
2021/08/23 09:02:43;;;;;;;;;;;18.80;71.90;;;;;;493737;240;1154;-46
2021/08/23 09:04:44;;;;;;;;;;;18.80;72.00;;;;;;493832;240;866;-46
2021/08/23 09:06:45;;;;;;;;;;;18.80;72.00;;;;;;493714;240;1147;-46
2021/08/23 09:08:47;;;;;;;;;;;18.80;72.00;;;;;;493476;240;1039;-46
2021/08/23 09:10:48;;;;;;;;;;;18.80;72.00;;;;;;493338;240;2211;-46
2021/08/23 09:12:49;;;;;;;;;;;18.80;72.00;;;;;;493371;240;1166;-46
2021/08/23 09:14:51;;;;;;;;;;;18.80;71.90;;;;;;493720;240;1291;-46
2021/08/23 09:16:52;;;;;;;;;;;18.80;72.00;;;;;;493248;240;1141;-46
2021/08/23 09:18:53;;;;;;;;;;;18.80;72.00;;;;;;493855;240;1095;-46
2021/08/23 09:20:55;;;;;;;;;;;18.80;72.00;;;;;;493870;240;1134;-46
2021/08/23 09:22:56;;;;;;;;;;;18.80;72.00;;;;;;493407;240;1026;-46
2021/08/23 09:24:57;;;;;;;;;;;18.80;72.00;;;;;;493497;240;856;-46
2021/08/23 09:26:59;;;;;;;;;;;18.80;72.00;;;;;;493975;240;850;-46
2021/08/23 09:29:00;;;;;;;;;;;18.80;71.90;;;;;;493394;240;1096;-46
2021/08/23 09:31:03;;;;;;;;;;;18.80;72.00;;;;;;493777;240;2187;-46
2021/08/23 09:33:03;;;;;;;;;;;18.80;72.00;;;;;;493726;240;2137;-46
2021/08/23 09:35:04;;;;;;;;;;;18.80;72.10;;;;;;493971;240;873;-46
2021/08/23 09:37:05;;;;;;;;;;;18.80;72.10;;;;;;493947;240;925;-46
2021/08/23 09:39:06;;;;;;;;;;;18.80;72.10;;;;;;493815;240;1017;-46
2021/08/23 09:41:08;;;;;;;;;;;18.80;72.10;;;;;;493826;240;1323;-46
2021/08/23 09:43:11;;;;;;;;;;;18.80;72.10;;;;;;493678;237;1236;-46
2021/08/23 09:45:11;;;;;;;;;;;18.80;72.00;;;;;;493329;240;2036;-45
2021/08/23 09:47:12;;;;;;;;;;;18.80;72.00;;;;;;493784;240;1003;-46
2021/08/23 09:49:13;;;;;;;;;;;18.80;72.10;;;;;;493421;240;861;-46
2021/08/23 09:51:15;;;;;;;;;;;18.80;72.10;;;;;;493836;240;2183;-46
2021/08/23 09:53:16;;;;;;;;;;;18.80;72.10;;;;;;493941;240;1203;-46
2021/08/23 09:55:18;;;;;;;;;;;18.80;72.10;;;;;;493428;240;869;-46
2021/08/23 09:57:18;;;;;;;;;;;18.80;72.00;;;;;;493807;240;1897;-46
2021/08/23 09:59:20;;;;;;;;;;;18.80;72.00;;;;;;493423;240;1104;-46
2021/08/23 10:01:21;;;;;;;;;;;18.80;72.00;;;;;;493882;240;1130;-46
2021/08/23 10:03:22;;;;;;;;;;;18.80;72.00;;;;;;493484;240;1356;-46
2021/08/23 10:05:24;;;;;;;;;;;18.80;72.10;;;;;;493533;240;833;-46
2021/08/23 10:07:28;;;;;;;;;;;18.80;72.10;;;;;;493508;240;995;-46
2021/08/23 10:09:27;;;;;;;;;;;18.80;72.20;;;;;;493249;241;1345;-46
2021/08/23 10:11:28;;;;;;;;;;;18.80;72.10;;;;;;493896;240;2186;-46
2021/08/23 10:13:29;;;;;;;;;;;18.80;72.10;;;;;;493424;240;1235;-46
2021/08/23 10:15:30;;;;;;;;;;;18.80;72.00;;;;;;493796;240;847;-46
2021/08/23 10:17:36;;;;;;;;;;;18.70;72.00;;;;;;493389;240;1027;-46
2021/08/23 10:19:33;;;;;;;;;;;18.80;72.10;;;;;;493741;241;2100;-46
2021/08/23 10:21:35;;;;;;;;;;;18.80;72.10;;;;;;493465;240;1249;-46
2021/08/23 10:23:36;;;;;;;;;;;18.70;72.10;;;;;;493993;240;1142;-46
2021/08/23 10:25:37;;;;;;;;;;;18.80;72.10;;;;;;493436;240;1189;-46
2021/08/23 10:27:39;;;;;;;;;;;18.80;72.10;;;;;;493433;240;1021;-46
2021/08/23 10:29:40;;;;;;;;;;;18.80;72.10;;;;;;493275;240;1263;-46
2021/08/23 10:31:42;;;;;;;;;;;18.70;72.00;;;;;;493710;240;2170;-46
2021/08/23 10:33:43;;;;;;;;;;;18.70;72.10;;;;;;493972;240;1151;-46
2021/08/23 10:35:44;;;;;;;;;;;18.70;72.20;;;;;;493491;240;1187;-46
2021/08/23 10:37:46;;;;;;;;;;;18.70;72.10;;;;;;492996;240;1048;-46
2021/08/23 10:39:47;;;;;;;;;;;18.70;72.20;;;;;;493965;240;875;-46
2021/08/23 10:41:49;;;;;;;;;;;18.70;72.10;;;;;;493666;240;1313;-45
2021/08/23 10:43:50;;;;;;;;;;;18.70;72.10;;;;;;493655;240;1171;-46
2021/08/23 10:45:51;;;;;;;;;;;18.70;72.20;;;;;;493815;240;847;-46
2021/08/23 10:47:52;;;;;;;;;;;18.70;72.20;;;;;;493453;240;937;-46
2021/08/23 10:49:54;;;;;;;;;;;18.70;72.10;;;;;;494001;240;2194;-46
2021/08/23 10:51:55;;;;;;;;;;;18.70;72.10;;;;;;493320;240;1248;-46
2021/08/23 10:53:56;;;;;;;;;;;18.70;72.00;;;;;;493152;240;1192;-46
2021/08/23 10:55:58;;;;;;;;;;;18.70;72.10;;;;;;493037;240;1229;-46
2021/08/23 10:57:59;;;;;;;;;;;18.70;72.00;;;;;;492897;240;1210;-46
2021/08/23 11:00:00;;;;;;;;;;;18.70;72.00;;;;;;492908;240;1191;-46
2021/08/23 11:02:02;;;;;;;;;;;18.70;72.00;;;;;;492762;240;1185;-46
2021/08/23 11:04:03;;;;;;;;;;;18.70;72.00;;;;;;493103;240;1361;-46
2021/08/23 11:06:04;;;;;;;;;;;18.70;72.10;;;;;;492883;240;1331;-46
2021/08/23 11:08:09;;;;;;;;;;;18.70;72.10;;;;;;492977;240;1161;-46
2021/08/23 11:10:09;;;;;;;;;;;18.70;72.10;;;;;;492689;241;2182;-46
2021/08/23 11:12:10;;;;;;;;;;;18.60;72.10;;;;;;492989;240;1535;-46
2021/08/23 11:14:12;;;;;;;;;;;18.70;72.20;;;;;;493008;240;1339;-46
2021/08/23 11:16:13;;;;;;;;;;;18.60;72.10;;;;;;492941;240;1366;-46
2021/08/23 11:18:14;;;;;;;;;;;18.70;72.10;;;;;;493885;240;1084;-46
2021/08/23 11:20:16;;;;;;;;;;;18.70;72.10;;;;;;493863;240;872;-46
2021/08/23 11:22:17;;;;;;;;;;;18.70;72.10;;;;;;493305;240;1022;-46
2021/08/23 11:24:18;;;;;;;;;;;18.70;72.10;;;;;;493384;240;765;-46
2021/08/23 11:26:20;;;;;;;;;;;18.70;72.10;;;;;;492816;240;1271;-46
2021/08/23 11:28:21;;;;;;;;;;;18.70;72.10;;;;;;493391;240;962;-45
2021/08/23 11:30:22;;;;;;;;;;;18.70;72.10;;;;;;492863;240;2186;-46
2021/08/23 11:32:24;;;;;;;;;;;18.60;72.10;;;;;;493312;240;970;-46
2021/08/23 11:34:25;;;;;;;;;;;18.60;72.10;;;;;;493534;240;1101;-46
2021/08/23 11:36:27;;;;;;;;;;;18.60;72.10;;;;;;493632;240;1219;-46
2021/08/23 11:38:28;;;;;;;;;;;18.70;72.10;;;;;;493498;240;1123;-46
2021/08/23 11:40:29;;;;;;;;;;;18.70;72.20;;;;;;493507;240;907;-46
2021/08/23 11:42:31;;;;;;;;;;;18.70;72.20;;;;;;493946;240;1133;-46
2021/08/23 11:44:32;;;;;;;;;;;18.70;72.20;;;;;;493739;240;1160;-46
2021/08/23 11:46:33;;;;;;;;;;;18.70;72.10;;;;;;493853;240;1161;-46
2021/08/23 11:48:35;;;;;;;;;;;18.70;72.10;;;;;;493998;240;980;-46
2021/08/23 11:50:36;;;;;;;;;;;18.60;72.10;;;;;;493585;240;2179;-46
2021/08/23 11:52:37;;;;;;;;;;;18.60;72.20;;;;;;493963;240;1064;-46
2021/08/23 11:54:39;;;;;;;;;;;18.60;72.10;;;;;;493904;240;871;-46
2021/08/23 11:56:40;;;;;;;;;;;18.60;72.10;;;;;;493393;240;1099;-46